createdAt,value
2019-01-30T00:02:07.644Z,7.45
2019-01-30T00:04:36.751Z,7.15
2019-01-30T00:07:05.950Z,7.75
2019-01-30T00:09:35.100Z,7.55
2019-01-30T00:12:04.514Z,7.58
2019-01-30T00:14:33.646Z,7.05
2019-01-30T00:17:02.822Z,7.45
2019-01-30T00:19:31.939Z,8.10
2019-01-30T00:22:01.161Z,7.65
2019-01-30T00:24:30.294Z,7.35
2019-01-30T00:26:59.431Z,7.77
2019-01-30T00:29:28.625Z,8.03
2019-01-30T00:31:57.786Z,7.47
2019-01-30T00:34:26.922Z,7.62
2019-01-30T00:36:56.088Z,7.40
2019-01-30T00:39:25.260Z,6.97
2019-01-30T00:41:54.434Z,7.72
2019-01-30T00:44:23.521Z,7.15
2019-01-30T00:46:52.676Z,7.30
2019-01-30T00:49:21.835Z,7.28
2019-01-30T00:51:50.954Z,7.37
2019-01-30T00:54:20.095Z,7.30
2019-01-30T00:56:49.243Z,7.37
2019-01-30T00:59:18.434Z,7.53
2019-01-30T01:01:47.548Z,7.65
2019-01-30T01:04:16.708Z,7.62
2019-01-30T01:06:45.838Z,7.42
2019-01-30T01:09:15.145Z,7.80
2019-01-30T01:11:44.243Z,7.75
2019-01-30T01:14:13.564Z,7.10
2019-01-30T01:16:42.728Z,7.83
2019-01-30T01:19:11.827Z,7.58
2019-01-30T01:21:41.031Z,7.50
2019-01-30T01:24:10.123Z,8.13
2019-01-30T01:26:39.430Z,8.08
2019-01-30T01:29:08.556Z,7.92
2019-01-30T01:31:37.725Z,8.00
2019-01-30T01:34:07.046Z,8.00
2019-01-30T01:36:36.286Z,8.33
2019-01-30T01:39:07.970Z,8.30
2019-01-30T01:41:37.117Z,8.35
2019-01-30T01:44:06.231Z,8.80
2019-01-30T01:46:35.483Z,8.68
2019-01-30T01:49:04.759Z,9.58
2019-01-30T01:51:33.924Z,8.68
2019-01-30T01:54:03.062Z,9.03
2019-01-30T01:56:32.231Z,9.60
2019-01-30T01:59:01.397Z,9.50
2019-01-30T02:01:30.616Z,10.03
2019-01-30T02:03:59.789Z,9.60
2019-01-30T02:06:29.046Z,9.65
2019-01-30T02:08:58.236Z,9.95
2019-01-30T02:11:27.441Z,10.10
2019-01-30T02:13:56.629Z,10.28
2019-01-30T02:16:25.823Z,10.70
2019-01-30T02:18:54.961Z,9.70
2019-01-30T02:21:24.585Z,10.23
2019-01-30T02:23:53.771Z,10.28
2019-01-30T02:26:22.924Z,11.08
2019-01-30T02:28:52.070Z,10.08
2019-01-30T02:31:21.310Z,10.55
2019-01-30T02:33:50.472Z,10.50
2019-01-30T02:36:19.636Z,11.33
2019-01-30T02:38:48.856Z,10.98
2019-01-30T02:41:17.985Z,11.48
2019-01-30T02:43:49.800Z,11.57
2019-01-30T02:46:18.894Z,12.23
2019-01-30T02:48:48.214Z,12.53
2019-01-30T02:51:17.345Z,12.60
2019-01-30T02:53:46.446Z,12.45
2019-01-30T02:56:15.689Z,12.20
2019-01-30T02:58:44.851Z,12.80
2019-01-30T03:01:14.012Z,12.23
2019-01-30T03:03:43.220Z,13.18
2019-01-30T03:06:12.371Z,12.15
2019-01-30T03:08:41.794Z,11.83
2019-01-30T03:11:11.190Z,11.95
2019-01-30T03:13:40.381Z,11.50
2019-01-30T03:16:09.586Z,11.68
2019-01-30T03:18:38.796Z,11.63
2019-01-30T03:21:07.956Z,11.45
2019-01-30T03:23:37.204Z,12.13
2019-01-30T03:26:06.319Z,11.17
2019-01-30T03:28:35.445Z,11.25
2019-01-30T03:31:16.928Z,11.28
2019-01-30T03:33:35.475Z,11.30
2019-01-30T03:36:04.694Z,11.28
2019-01-30T03:38:33.941Z,12.10
2019-01-30T03:41:03.065Z,11.10
2019-01-30T03:43:32.437Z,11.43
2019-01-30T03:46:01.744Z,13.10
2019-01-30T03:48:30.923Z,11.30
2019-01-30T03:51:00.096Z,11.70
2019-01-30T03:53:29.298Z,11.35
2019-01-30T03:55:58.461Z,11.57
2019-01-30T03:58:27.594Z,12.20
2019-01-30T04:00:56.692Z,13.88
2019-01-30T04:03:25.854Z,11.70
2019-01-30T04:05:55.176Z,11.73
2019-01-30T04:08:24.407Z,11.33
2019-01-30T04:10:53.470Z,11.10
2019-01-30T04:13:22.821Z,11.43
2019-01-30T04:15:51.922Z,11.38
2019-01-30T04:18:21.067Z,11.05
2019-01-30T04:20:50.205Z,10.63
2019-01-30T04:23:19.356Z,10.98
2019-01-30T04:25:48.743Z,11.20
2019-01-30T04:28:18.007Z,11.50
2019-01-30T04:30:47.264Z,12.98
2019-01-30T04:33:16.604Z,14.85
2019-01-30T04:35:45.961Z,12.47
2019-01-30T04:38:15.268Z,11.78
2019-01-30T04:40:44.521Z,10.80
2019-01-30T04:43:13.656Z,11.33
2019-01-30T04:45:42.799Z,11.35
2019-01-30T04:48:12.079Z,11.12
2019-01-30T04:50:41.455Z,11.03
2019-01-30T04:53:11.985Z,11.68
2019-01-30T04:55:41.081Z,11.63
2019-01-30T04:58:10.348Z,11.65
2019-01-30T05:00:39.575Z,10.88
2019-01-30T05:03:08.680Z,11.55
2019-01-30T05:05:39.435Z,11.10
2019-01-30T05:08:08.695Z,10.95
2019-01-30T05:10:37.809Z,11.40
2019-01-30T05:13:07.059Z,12.95
2019-01-30T05:15:36.241Z,14.05
2019-01-30T05:18:06.765Z,11.33
2019-01-30T05:20:35.978Z,11.30
2019-01-30T05:23:05.179Z,10.80
2019-01-30T05:25:37.290Z,11.12
2019-01-30T05:28:06.701Z,11.57
2019-01-30T05:30:36.301Z,10.90
2019-01-30T05:33:05.867Z,11.35
2019-01-30T05:36:11.840Z,11.50
2019-01-30T05:38:41.267Z,11.40
2019-01-30T05:41:10.670Z,11.03
2019-01-30T05:43:42.506Z,11.63
2019-01-30T05:46:11.077Z,11.22
2019-01-30T05:48:40.389Z,11.30
2019-01-30T05:51:09.816Z,10.85
2019-01-30T05:53:39.281Z,11.35
2019-01-30T05:56:08.626Z,11.25
2019-01-30T05:58:39.374Z,10.60
2019-01-30T06:01:08.826Z,10.93
2019-01-30T06:03:44.119Z,11.33
2019-01-30T06:06:15.318Z,10.38
2019-01-30T06:08:42.299Z,10.43
2019-01-30T06:11:18.753Z,10.45
2019-01-30T06:13:45.300Z,10.95
2019-01-30T06:16:18.505Z,10.78
2019-01-30T06:18:49.787Z,10.88
2019-01-30T06:21:22.277Z,10.82
2019-01-30T06:23:51.962Z,10.70
2019-01-30T06:26:26.100Z,11.70
2019-01-30T06:28:58.263Z,11.73
2019-01-30T06:31:27.658Z,11.53
2019-01-30T06:34:03.301Z,12.53
2019-01-30T06:36:28.258Z,11.25
2019-01-30T06:38:57.857Z,11.60
2019-01-30T06:41:41.702Z,11.15
2019-01-30T06:44:00.410Z,11.75
2019-01-30T06:46:31.490Z,11.40
2019-01-30T06:49:02.855Z,11.48
2019-01-30T06:51:31.927Z,11.78
2019-01-30T06:54:01.238Z,11.65
2019-01-30T06:56:30.490Z,11.93
2019-01-30T06:58:59.655Z,11.40
2019-01-30T07:01:28.836Z,11.70
2019-01-30T07:03:59.363Z,12.07
2019-01-30T07:06:28.548Z,12.65
2019-01-30T07:08:57.758Z,11.93
2019-01-30T07:11:26.852Z,12.07
2019-01-30T07:13:56.024Z,12.50
2019-01-30T07:16:25.105Z,12.03
2019-01-30T07:18:54.208Z,12.50
2019-01-30T07:21:23.379Z,12.88
2019-01-30T07:23:52.702Z,13.03
2019-01-30T07:26:21.833Z,12.13
2019-01-30T07:28:50.996Z,13.05
2019-01-30T07:31:20.131Z,12.68
2019-01-30T07:33:49.218Z,12.78
2019-01-30T07:36:18.399Z,12.77
2019-01-30T07:38:47.450Z,13.93
2019-01-30T07:41:16.610Z,12.98
2019-01-30T07:43:45.696Z,13.20
2019-01-30T07:46:14.881Z,14.53
2019-01-30T07:48:43.968Z,13.50
2019-01-30T07:51:15.707Z,13.62
2019-01-30T07:53:43.898Z,13.75
2019-01-30T07:56:13.028Z,13.25
2019-01-30T07:58:42.176Z,13.55
2019-01-30T08:01:11.405Z,14.15
2019-01-30T08:03:40.573Z,14.20
2019-01-30T08:06:09.744Z,14.05
2019-01-30T08:08:38.855Z,14.28
2019-01-30T08:11:09.268Z,14.20
2019-01-30T08:13:38.314Z,14.38
2019-01-30T08:16:07.376Z,14.07
2019-01-30T08:18:36.503Z,14.03
2019-01-30T08:21:05.639Z,14.18
2019-01-30T08:23:34.975Z,14.53
2019-01-30T08:26:04.280Z,14.00
2019-01-30T08:28:33.476Z,14.30
2019-01-30T08:31:03.062Z,13.83
2019-01-30T08:33:32.154Z,14.00
2019-01-30T08:36:01.277Z,14.35
2019-01-30T08:38:30.407Z,14.78
2019-01-30T08:40:59.507Z,14.25
2019-01-30T08:43:28.661Z,14.15
2019-01-30T08:45:57.803Z,14.00
2019-01-30T08:48:28.523Z,14.40
2019-01-30T08:50:57.805Z,14.60
2019-01-30T08:53:26.934Z,14.93
2019-01-30T08:55:56.059Z,14.95
2019-01-30T08:58:25.178Z,14.30
2019-01-30T09:00:54.299Z,14.45
2019-01-30T09:03:23.466Z,14.40
2019-01-30T09:05:52.599Z,14.93
2019-01-30T09:08:21.748Z,14.80
2019-01-30T09:10:50.851Z,15.25
2019-01-30T09:13:20.008Z,15.05
2019-01-30T09:15:49.270Z,14.40
2019-01-30T09:18:18.390Z,14.70
2019-01-30T09:20:47.631Z,13.88
2019-01-30T09:23:16.752Z,14.18
2019-01-30T09:25:45.977Z,14.87
2019-01-30T09:28:15.101Z,15.60
2019-01-30T09:30:44.320Z,15.63
2019-01-30T09:33:13.485Z,15.65
2019-01-30T09:35:42.671Z,17.10
2019-01-30T09:38:11.813Z,17.35
2019-01-30T09:40:41.033Z,17.65
2019-01-30T09:43:10.241Z,17.40
2019-01-30T09:45:39.357Z,18.17
2019-01-30T09:48:08.626Z,18.23
2019-01-30T09:50:37.799Z,19.32
2019-01-30T09:53:06.897Z,18.70
2019-01-30T09:55:36.036Z,20.95
2019-01-30T09:58:05.144Z,17.62
2019-01-30T10:00:36.251Z,18.40
2019-01-30T10:03:05.345Z,18.82
2019-01-30T10:05:34.523Z,20.92
2019-01-30T10:08:03.667Z,20.43
2019-01-30T10:10:34.672Z,32.30
2019-01-30T10:13:03.939Z,18.37
2019-01-30T10:15:37.423Z,17.73
2019-01-30T10:18:06.890Z,18.32
2019-01-30T10:20:36.655Z,19.62
2019-01-30T10:23:05.949Z,23.00
2019-01-30T10:25:35.045Z,24.43
2019-01-30T10:28:04.280Z,24.15
2019-01-30T10:30:35.129Z,19.40
2019-01-30T10:33:04.226Z,25.08
2019-01-30T10:35:33.311Z,18.85
2019-01-30T10:38:02.427Z,17.15
2019-01-30T10:40:31.538Z,18.23
2019-01-30T10:43:00.679Z,18.35
2019-01-30T10:45:29.774Z,18.75
2019-01-30T10:47:58.879Z,19.42
2019-01-30T10:50:29.013Z,18.70
2019-01-30T10:52:58.201Z,19.80
2019-01-30T10:55:28.869Z,20.17
2019-01-30T10:57:59.586Z,17.27
2019-01-30T11:00:34.431Z,17.55
2019-01-30T11:03:03.611Z,17.17
2019-01-30T11:05:32.777Z,18.52
2019-01-30T11:08:01.957Z,17.87
2019-01-30T11:10:31.057Z,17.92
2019-01-30T11:13:00.253Z,18.40
2019-01-30T11:15:29.422Z,19.13
2019-01-30T11:17:58.604Z,19.98
2019-01-30T11:20:29.834Z,19.12
2019-01-30T11:22:59.142Z,19.17
2019-01-30T11:25:31.015Z,18.45
2019-01-30T11:28:00.230Z,13.77
2019-01-30T11:30:29.419Z,17.83
2019-01-30T11:32:58.620Z,17.80
2019-01-30T11:35:27.887Z,17.45
2019-01-30T11:37:57.266Z,19.35
2019-01-30T11:40:26.561Z,17.90
2019-01-30T11:42:55.888Z,23.18
2019-01-30T11:45:30.632Z,19.17
2019-01-30T11:48:01.516Z,19.92
2019-01-30T11:50:30.823Z,20.62
2019-01-30T11:53:00.106Z,21.10
2019-01-30T11:55:29.388Z,22.70
2019-01-30T11:57:58.808Z,22.98
2019-01-30T12:00:33.403Z,22.90
2019-01-30T12:03:06.251Z,24.27
2019-01-30T12:05:35.624Z,23.65
2019-01-30T12:08:07.289Z,24.77
2019-01-30T12:10:37.219Z,25.65
2019-01-30T12:13:06.407Z,25.32
2019-01-30T12:15:38.594Z,25.20
2019-01-30T12:18:08.015Z,27.25
2019-01-30T12:20:40.167Z,25.45
2019-01-30T12:23:09.417Z,26.50
2019-01-30T12:25:38.778Z,27.17
2019-01-30T12:28:08.097Z,26.20
2019-01-30T12:30:37.301Z,26.00
2019-01-30T12:33:08.597Z,27.27
2019-01-30T12:35:39.061Z,26.17
2019-01-30T12:38:08.313Z,26.17
2019-01-30T12:40:37.580Z,25.92
2019-01-30T12:43:06.929Z,29.82
2019-01-30T12:45:36.591Z,27.37
2019-01-30T12:48:06.194Z,27.25
2019-01-30T12:50:35.445Z,27.25
2019-01-30T12:53:06.344Z,26.20
2019-01-30T12:55:35.690Z,27.10
2019-01-30T12:58:04.901Z,27.45
2019-01-30T13:00:38.796Z,26.30
2019-01-30T13:03:07.404Z,27.58
2019-01-30T13:05:36.583Z,26.97
2019-01-30T13:08:09.010Z,27.62
2019-01-30T13:10:38.209Z,24.87
2019-01-30T13:13:07.410Z,25.72
2019-01-30T13:15:36.692Z,24.85
2019-01-30T13:18:17.551Z,25.72
2019-01-30T13:20:39.786Z,24.18
2019-01-30T13:23:08.616Z,25.17
2019-01-30T13:25:39.028Z,25.08
2019-01-30T13:28:08.271Z,24.12
2019-01-30T13:30:43.628Z,23.07
2019-01-30T13:33:12.153Z,24.85
2019-01-30T13:35:42.625Z,25.60
2019-01-30T13:38:11.961Z,25.92
2019-01-30T13:40:43.182Z,25.00
2019-01-30T13:43:12.383Z,24.60
2019-01-30T13:45:41.484Z,24.90
2019-01-30T13:48:15.714Z,25.17
2019-01-30T13:50:44.947Z,25.97
2019-01-30T13:53:14.479Z,27.37
2019-01-30T13:55:45.211Z,25.08
2019-01-30T13:58:14.309Z,27.85
2019-01-30T14:00:43.550Z,27.17
2019-01-30T14:03:12.876Z,28.17
2019-01-30T14:05:42.085Z,28.67
2019-01-30T14:08:12.696Z,27.60
2019-01-30T14:10:41.899Z,29.37
2019-01-30T14:13:11.173Z,28.67
2019-01-30T14:15:41.572Z,29.12
2019-01-30T14:18:15.242Z,28.20
2019-01-30T14:20:41.686Z,28.07
2019-01-30T14:23:10.888Z,28.40
2019-01-30T14:25:40.157Z,27.07
2019-01-30T14:28:09.381Z,28.23
2019-01-30T14:30:41.451Z,28.98
2019-01-30T14:33:10.645Z,21.20
2019-01-30T14:35:46.506Z,30.15
2019-01-30T14:38:15.701Z,31.85
2019-01-30T14:40:44.977Z,31.23
2019-01-30T14:43:14.200Z,31.20
2019-01-30T14:46:06.712Z,32.45
2019-01-30T14:48:37.226Z,34.92
2019-01-30T14:51:32.615Z,33.28
2019-01-30T14:54:03.314Z,33.90
2019-01-30T14:56:33.048Z,33.35
2019-01-30T14:59:03.830Z,32.35
2019-01-30T15:02:20.440Z,31.35
2019-01-30T15:04:49.781Z,31.50
2019-01-30T15:07:47.297Z,32.40
2019-01-30T15:10:44.733Z,32.00
2019-01-30T15:13:12.859Z,32.85
2019-01-30T15:16:36.281Z,32.93
2019-01-30T15:19:27.503Z,32.75
2019-01-30T15:24:34.286Z,31.57
2019-01-30T15:27:36.665Z,31.30
2019-01-30T15:30:57.285Z,32.05
2019-01-30T15:34:58.291Z,35.25
2019-01-30T15:36:42.517Z,33.63
2019-01-30T15:39:23.168Z,31.95
2019-01-30T15:41:50.143Z,32.00
2019-01-30T15:44:19.544Z,31.90
2019-01-30T15:46:51.583Z,32.23
2019-01-30T15:49:26.192Z,32.45
2019-01-30T15:52:26.995Z,32.15
2019-01-30T15:55:00.676Z,31.60
2019-01-30T16:01:36.965Z,30.35
2019-01-30T16:04:48.215Z,32.80
2019-01-30T16:07:24.883Z,36.10
2019-01-30T16:09:56.027Z,37.33
2019-01-30T16:12:28.597Z,37.80
2019-01-30T16:15:03.498Z,38.78
2019-01-30T16:17:34.787Z,37.67
2019-01-30T16:20:03.890Z,34.18
2019-01-30T16:22:40.612Z,34.03
2019-01-30T16:25:09.970Z,33.28
2019-01-30T16:27:44.586Z,33.15
2019-01-30T16:30:18.915Z,32.30
2019-01-30T16:32:50.544Z,31.97
2019-01-30T16:35:23.988Z,33.45
2019-01-30T16:37:53.339Z,34.33
2019-01-30T16:40:24.067Z,36.47
2019-01-30T16:42:57.471Z,34.05
2019-01-30T16:45:30.922Z,35.70
2019-01-30T16:48:00.504Z,33.48
2019-01-30T16:50:46.819Z,34.30
2019-01-30T16:53:50.688Z,32.93
2019-01-30T16:57:12.644Z,33.67
2019-01-30T16:59:34.553Z,33.73
2019-01-30T17:02:27.408Z,34.00
2019-01-30T17:05:11.350Z,34.16
2019-01-30T17:12:49.733Z,33.95
2019-01-30T17:18:39.074Z,45.73
2019-01-30T17:21:20.654Z,38.08
2019-01-30T17:23:59.602Z,36.63
2019-01-30T17:27:48.556Z,35.83
2019-01-30T17:29:57.566Z,34.05
2019-01-30T17:36:17.922Z,33.45
2019-01-30T17:38:44.618Z,44.75
2019-01-30T17:42:21.884Z,38.33
2019-01-30T17:44:06.890Z,42.38
2019-01-30T17:47:13.729Z,34.85
2019-01-30T17:49:43.221Z,34.50
2019-01-30T17:52:32.774Z,36.03
2019-01-30T17:55:16.271Z,37.40
2019-01-30T17:57:43.112Z,35.55
2019-01-30T18:00:25.934Z,36.13
2019-01-30T18:02:55.368Z,36.17
2019-01-30T18:05:24.683Z,40.77
2019-01-30T18:07:54.030Z,40.95
2019-01-30T18:11:05.878Z,42.87
2019-01-30T18:17:27.244Z,40.92
2019-01-30T18:19:46.172Z,43.80
2019-01-30T18:23:10.651Z,53.15
2019-01-30T18:25:49.018Z,43.13
2019-01-30T18:29:20.184Z,44.38
2019-01-30T18:31:29.703Z,49.40
2019-01-30T18:34:36.201Z,47.88
2019-01-30T18:37:02.830Z,44.65
2019-01-30T18:39:32.158Z,42.50
2019-01-30T18:42:01.464Z,40.73
2019-01-30T18:44:34.398Z,38.40
2019-01-30T18:47:26.696Z,37.20
2019-01-30T18:49:56.073Z,38.00
2019-01-30T18:52:27.158Z,38.73
2019-01-30T18:54:56.712Z,38.38
2019-01-30T18:57:26.088Z,39.35
2019-01-30T18:59:55.359Z,37.83
2019-01-30T19:02:26.463Z,38.90
2019-01-30T19:04:55.784Z,37.88
2019-01-30T19:07:25.005Z,39.83
2019-01-30T19:09:54.260Z,41.77
2019-01-30T19:12:23.683Z,42.27
2019-01-30T19:14:55.892Z,40.03
2019-01-30T19:17:30.222Z,40.75
2019-01-30T19:20:03.889Z,40.23
2019-01-30T19:28:16.061Z,39.13
2019-01-30T19:30:45.191Z,40.78
2019-01-30T19:33:15.641Z,40.43
2019-01-30T19:35:46.976Z,41.98
2019-01-30T19:38:16.305Z,41.88
2019-01-30T19:40:45.509Z,41.05
2019-01-30T19:43:14.773Z,41.88
2019-01-30T19:45:43.946Z,46.65
2019-01-30T19:48:13.118Z,43.05
2019-01-30T19:50:42.312Z,59.03
2019-01-30T19:53:11.567Z,42.93
2019-01-30T19:55:40.748Z,50.70
2019-01-30T19:58:12.223Z,41.92
2019-01-30T20:00:48.964Z,43.17
2019-01-30T20:03:24.239Z,43.70
2019-01-30T20:05:53.428Z,47.30
2019-01-30T20:08:23.533Z,45.00
2019-01-30T20:10:52.665Z,43.68
2019-01-30T20:13:21.888Z,42.62
2019-01-30T20:15:51.088Z,41.33
2019-01-30T20:18:20.228Z,41.75
2019-01-30T20:20:49.517Z,41.77
2019-01-30T20:23:20.154Z,39.95
2019-01-30T20:25:49.478Z,40.20
2019-01-30T20:28:19.720Z,41.63
2019-01-30T20:30:48.888Z,39.40
2019-01-30T20:33:18.034Z,40.67
2019-01-30T20:35:47.493Z,39.73
2019-01-30T20:38:16.626Z,40.95
2019-01-30T20:40:45.875Z,41.18
2019-01-30T20:43:15.021Z,41.13
2019-01-30T20:45:44.219Z,40.73
2019-01-30T20:48:13.388Z,40.17
2019-01-30T20:50:59.362Z,39.33
2019-01-30T20:53:28.544Z,38.50
2019-01-30T20:55:57.751Z,39.10
2019-01-30T20:58:26.884Z,38.90
2019-01-30T21:00:56.047Z,38.80
2019-01-30T21:03:26.214Z,38.23
2019-01-30T21:05:55.391Z,36.55
2019-01-30T21:08:24.520Z,36.23
2019-01-30T21:10:53.710Z,36.55
2019-01-30T21:13:22.845Z,35.25
2019-01-30T21:15:53.081Z,35.00
2019-01-30T21:18:22.285Z,35.23
2019-01-30T21:20:51.474Z,35.40
2019-01-30T21:23:20.647Z,35.88
2019-01-30T21:25:50.150Z,36.13
2019-01-30T21:28:19.428Z,34.65
2019-01-30T21:30:48.675Z,36.10
2019-01-30T21:33:17.951Z,35.45
2019-01-30T21:35:47.240Z,34.78
2019-01-30T21:38:16.532Z,35.83
2019-01-30T21:40:45.733Z,34.35
2019-01-30T21:43:14.975Z,34.85
2019-01-30T21:45:49.955Z,35.48
2019-01-30T21:48:43.313Z,35.40
2019-01-30T21:50:51.665Z,34.48
2019-01-30T21:53:20.936Z,35.17
2019-01-30T21:55:50.074Z,34.63
2019-01-30T21:58:19.310Z,35.30
2019-01-30T22:00:48.449Z,35.48
2019-01-30T22:03:17.671Z,33.95
2019-01-30T22:05:46.871Z,35.92
2019-01-30T22:08:16.378Z,36.30
2019-01-30T22:10:50.151Z,36.48
2019-01-30T22:13:19.330Z,36.65
2019-01-30T22:15:48.480Z,37.13
2019-01-30T22:18:17.804Z,38.08
2019-01-30T22:20:46.991Z,37.08
2019-01-30T22:23:16.164Z,37.40
2019-01-30T22:25:45.319Z,36.60
2019-01-30T22:28:14.473Z,37.05
2019-01-30T22:30:43.669Z,36.58
2019-01-30T22:33:12.855Z,36.38
2019-01-30T22:35:42.019Z,36.73
2019-01-30T22:38:12.827Z,35.45
2019-01-30T22:40:42.208Z,36.65
2019-01-30T22:43:11.391Z,35.92
2019-01-30T22:45:40.541Z,36.80
2019-01-30T22:48:09.664Z,35.60
2019-01-30T22:50:38.832Z,34.73
2019-01-30T22:53:07.954Z,36.55
2019-01-30T22:55:37.072Z,36.45
2019-01-30T22:58:06.201Z,35.85
2019-01-30T23:01:04.827Z,35.68
2019-01-30T23:04:10.225Z,34.63
2019-01-30T23:07:05.516Z,33.78
2019-01-30T23:10:21.214Z,34.03
2019-01-30T23:13:37.543Z,35.58
2019-01-30T23:16:49.648Z,33.88
2019-01-30T23:19:39.484Z,34.70
2019-01-30T23:22:38.067Z,32.90
2019-01-30T23:25:51.168Z,34.32
2019-01-30T23:29:06.231Z,33.88
2019-01-30T23:31:50.142Z,35.40
2019-01-30T23:34:46.964Z,34.80
2019-01-30T23:37:49.681Z,34.88
2019-01-30T23:40:54.641Z,32.87
2019-01-30T23:43:37.953Z,35.58
2019-01-30T23:46:41.380Z,33.53
2019-01-30T23:52:38.039Z,33.40
2019-01-30T23:55:42.727Z,34.86
2019-01-30T23:58:36.829Z,34.78
